createdAt,value
2023-02-07T00:00:12.945Z,1015.99
2023-02-07T00:01:12.990Z,1015.93
2023-02-07T00:02:12.993Z,1015.88
2023-02-07T00:03:12.962Z,1015.86
2023-02-07T00:04:12.897Z,1015.89
2023-02-07T00:05:12.874Z,1015.84
2023-02-07T00:06:12.883Z,1015.85
2023-02-07T00:07:12.849Z,1015.96
2023-02-07T00:08:12.837Z,1015.94
2023-02-07T00:09:12.819Z,1015.96
2023-02-07T00:10:12.820Z,1016.01
2023-02-07T00:11:12.829Z,1015.93
2023-02-07T00:12:12.782Z,1015.90
2023-02-07T00:13:12.775Z,1015.93
2023-02-07T00:14:12.746Z,1015.85
2023-02-07T00:15:12.739Z,1015.90
2023-02-07T00:16:12.800Z,1015.90
2023-02-07T00:17:12.718Z,1015.92
2023-02-07T00:18:12.715Z,1015.93
2023-02-07T00:19:12.706Z,1015.94
2023-02-07T00:20:12.686Z,1015.94
2023-02-07T00:21:12.705Z,1015.98
2023-02-07T00:22:12.680Z,1015.93
2023-02-07T00:23:12.658Z,1015.87
2023-02-07T00:24:12.628Z,1015.87
2023-02-07T00:25:12.621Z,1015.85
2023-02-07T00:26:12.627Z,1015.82
2023-02-07T00:27:12.608Z,1015.80
2023-02-07T00:28:12.665Z,1015.81
2023-02-07T00:29:12.588Z,1015.83
2023-02-07T00:30:12.559Z,1015.82
2023-02-07T00:31:12.747Z,1015.87
2023-02-07T00:32:12.546Z,1015.82
2023-02-07T00:33:12.550Z,1015.82
2023-02-07T00:34:12.507Z,1015.78
2023-02-07T00:35:12.510Z,1015.77
2023-02-07T00:36:12.508Z,1015.75
2023-02-07T00:37:12.470Z,1015.71
2023-02-07T00:38:12.451Z,1015.74
2023-02-07T00:39:12.451Z,1015.64
2023-02-07T00:40:12.426Z,1015.64
2023-02-07T00:41:12.445Z,1015.59
2023-02-07T00:42:12.402Z,1015.55
2023-02-07T00:43:18.892Z,1015.56
2023-02-07T00:44:13.384Z,1015.56
2023-02-07T00:45:12.366Z,1015.52
2023-02-07T00:46:12.480Z,1015.50
2023-02-07T00:47:12.359Z,1015.42
2023-02-07T00:48:12.334Z,1015.38
2023-02-07T00:49:12.321Z,1015.40
2023-02-07T00:50:12.299Z,1015.42
2023-02-07T00:51:12.328Z,1015.44
2023-02-07T00:52:12.274Z,1015.46
2023-02-07T00:53:12.264Z,1015.46
2023-02-07T00:54:12.248Z,1015.42
2023-02-07T00:55:12.232Z,1015.44
2023-02-07T00:56:12.268Z,1015.43
2023-02-07T00:57:12.210Z,1015.44
2023-02-07T00:58:12.199Z,1015.37
2023-02-07T00:59:12.187Z,1015.38
2023-02-07T01:00:12.171Z,1015.36
2023-02-07T01:01:12.257Z,1015.34
2023-02-07T01:02:12.159Z,1015.26
2023-02-07T01:03:12.151Z,1015.20
2023-02-07T01:04:12.122Z,1015.26
2023-02-07T01:05:12.123Z,1015.24
2023-02-07T01:06:12.170Z,1015.25
2023-02-07T01:07:12.090Z,1015.29
2023-02-07T01:08:12.074Z,1015.27
2023-02-07T01:09:12.076Z,1015.28
2023-02-07T01:10:12.057Z,1015.24
2023-02-07T01:11:12.071Z,1015.19
2023-02-07T01:12:12.020Z,1015.22
2023-02-07T01:13:12.017Z,1015.23
2023-02-07T01:14:12.001Z,1015.25
2023-02-07T01:15:11.992Z,1015.24
2023-02-07T01:16:12.015Z,1015.18
2023-02-07T01:17:12.757Z,1015.09
2023-02-07T01:18:11.942Z,1015.13
2023-02-07T01:19:11.940Z,1015.10
2023-02-07T01:20:11.928Z,1015.13
2023-02-07T01:21:11.955Z,1015.09
2023-02-07T01:22:11.892Z,1015.07
2023-02-07T01:23:11.901Z,1015.09
2023-02-07T01:24:11.868Z,1015.08
2023-02-07T01:25:11.864Z,1015.08
2023-02-07T01:26:11.868Z,1015.05
2023-02-07T01:27:11.843Z,1015.09
2023-02-07T01:28:11.926Z,1015.10
2023-02-07T01:29:11.811Z,1015.07
2023-02-07T01:30:11.797Z,1015.06
2023-02-07T01:31:11.896Z,1015.06
2023-02-07T01:32:11.781Z,1015.03
2023-02-07T01:33:11.758Z,1015.00
2023-02-07T01:34:11.742Z,1014.97
2023-02-07T01:35:11.758Z,1014.98
2023-02-07T01:36:11.759Z,1014.99
2023-02-07T01:37:11.717Z,1014.94
2023-02-07T01:38:11.690Z,1014.96
2023-02-07T01:39:11.681Z,1014.94
2023-02-07T01:40:11.736Z,1014.95
2023-02-07T01:41:11.689Z,1014.97
2023-02-07T01:42:11.634Z,1015.02
2023-02-07T01:43:11.635Z,1015.00
2023-02-07T01:44:11.617Z,1014.93
2023-02-07T01:45:11.700Z,1014.98
2023-02-07T01:46:11.683Z,1014.97
2023-02-07T01:47:11.583Z,1014.95
2023-02-07T01:48:11.564Z,1014.95
2023-02-07T01:49:11.556Z,1014.90
2023-02-07T01:50:11.535Z,1014.91
2023-02-07T01:51:11.541Z,1014.92
2023-02-07T01:52:11.545Z,1014.93
2023-02-07T01:53:11.509Z,1014.97
2023-02-07T01:54:11.491Z,1014.95
2023-02-07T01:55:11.476Z,1014.94
2023-02-07T01:56:20.072Z,1014.95
2023-02-07T01:57:12.486Z,1015.01
2023-02-07T01:58:11.434Z,1015.01
2023-02-07T01:59:11.425Z,1014.98
2023-02-07T02:00:11.440Z,1014.95
2023-02-07T02:01:11.432Z,1014.96
2023-02-07T02:02:11.417Z,1014.97
2023-02-07T02:03:11.380Z,1015.00
2023-02-07T02:04:11.348Z,1014.98
2023-02-07T02:05:11.355Z,1014.87
2023-02-07T02:06:11.342Z,1014.86
2023-02-07T02:07:11.372Z,1014.90
2023-02-07T02:08:11.306Z,1014.93
2023-02-07T02:09:11.357Z,1014.96
2023-02-07T02:10:11.277Z,1014.94
2023-02-07T02:11:11.268Z,1015.00
2023-02-07T02:12:11.294Z,1015.00
2023-02-07T02:13:11.247Z,1014.94
2023-02-07T02:14:11.228Z,1014.90
2023-02-07T02:15:11.233Z,1014.92
2023-02-07T02:16:11.260Z,1014.86
2023-02-07T02:17:11.245Z,1014.89
2023-02-07T02:18:11.195Z,1014.86
2023-02-07T02:19:11.174Z,1014.87
2023-02-07T02:20:11.169Z,1014.94
2023-02-07T02:21:11.164Z,1014.93
2023-02-07T02:22:11.157Z,1014.93
2023-02-07T02:23:11.125Z,1014.91
2023-02-07T02:24:11.129Z,1014.96
2023-02-07T02:25:11.214Z,1014.91
2023-02-07T02:26:11.088Z,1014.90
2023-02-07T02:27:11.105Z,1014.97
2023-02-07T02:28:11.078Z,1014.93
2023-02-07T02:29:11.056Z,1014.98
2023-02-07T02:30:11.045Z,1014.98
2023-02-07T02:31:11.060Z,1014.99
2023-02-07T02:32:11.057Z,1015.01
2023-02-07T02:33:10.993Z,1015.06
2023-02-07T02:34:11.013Z,1015.09
2023-02-07T02:35:11.006Z,1015.05
2023-02-07T02:36:10.941Z,1015.08
2023-02-07T02:37:10.986Z,1015.08
2023-02-07T02:38:10.931Z,1015.18
2023-02-07T02:39:10.921Z,1015.14
2023-02-07T02:40:10.902Z,1015.21
2023-02-07T02:41:10.910Z,1015.19
2023-02-07T02:42:10.910Z,1015.22
2023-02-07T02:43:10.887Z,1015.21
2023-02-07T02:44:10.859Z,1015.18
2023-02-07T02:45:10.846Z,1015.16
2023-02-07T02:46:10.872Z,1015.14
2023-02-07T02:47:10.847Z,1015.12
2023-02-07T02:48:10.802Z,1015.14
2023-02-07T02:49:10.802Z,1015.11
2023-02-07T02:50:10.821Z,1015.05
2023-02-07T02:51:10.780Z,1015.05
2023-02-07T02:52:10.791Z,1015.08
2023-02-07T02:53:10.741Z,1015.04
2023-02-07T02:54:10.731Z,1015.03
2023-02-07T02:55:10.709Z,1015.03
2023-02-07T02:56:10.739Z,1015.02
2023-02-07T02:57:10.727Z,1014.98
2023-02-07T02:58:10.679Z,1015.02
2023-02-07T02:59:10.662Z,1015.02
2023-02-07T03:00:10.691Z,1015.03
2023-02-07T03:01:10.645Z,1014.99
2023-02-07T03:02:10.658Z,1014.93
2023-02-07T03:03:10.609Z,1014.95
2023-02-07T03:04:10.614Z,1014.97
2023-02-07T03:05:10.640Z,1015.00
2023-02-07T03:06:10.617Z,1015.00
2023-02-07T03:07:10.604Z,1015.03
2023-02-07T03:08:10.549Z,1015.06
2023-02-07T03:09:10.549Z,1015.05
2023-02-07T03:10:10.538Z,1015.06
2023-02-07T03:11:10.524Z,1015.06
2023-02-07T03:12:10.509Z,1015.01
2023-02-07T03:13:10.527Z,1014.98
2023-02-07T03:14:10.494Z,1014.97
2023-02-07T03:15:10.474Z,1014.95
2023-02-07T03:16:10.485Z,1014.96
2023-02-07T03:17:10.438Z,1014.91
2023-02-07T03:18:10.618Z,1014.91
2023-02-07T03:19:10.424Z,1014.91
2023-02-07T03:20:10.429Z,1014.86
2023-02-07T03:21:10.387Z,1014.84
2023-02-07T03:22:10.413Z,1014.85
2023-02-07T03:23:10.406Z,1014.84
2023-02-07T03:24:10.355Z,1014.81
2023-02-07T03:25:10.353Z,1014.77
2023-02-07T03:26:10.337Z,1014.79
2023-02-07T03:27:10.317Z,1014.80
2023-02-07T03:28:10.361Z,1014.86
2023-02-07T03:29:10.306Z,1014.83
2023-02-07T03:30:10.285Z,1014.84
2023-02-07T03:31:10.322Z,1014.87
2023-02-07T03:32:10.249Z,1014.91
2023-02-07T03:33:10.299Z,1014.89
2023-02-07T03:34:10.232Z,1014.86
2023-02-07T03:35:10.218Z,1014.85
2023-02-07T03:36:10.200Z,1014.77
2023-02-07T03:37:10.296Z,1014.74
2023-02-07T03:38:10.206Z,1014.71
2023-02-07T03:39:10.165Z,1014.75
2023-02-07T03:40:10.172Z,1014.72
2023-02-07T03:41:10.131Z,1014.78
2023-02-07T03:42:10.134Z,1014.79
2023-02-07T03:43:10.159Z,1014.75
2023-02-07T03:44:10.105Z,1014.72
2023-02-07T03:45:10.089Z,1014.70
2023-02-07T03:46:10.104Z,1014.72
2023-02-07T03:47:10.060Z,1014.68
2023-02-07T03:48:10.177Z,1014.70
2023-02-07T03:49:11.307Z,1014.74
2023-02-07T03:50:10.017Z,1014.69
2023-02-07T03:51:10.015Z,1014.74
2023-02-07T03:52:10.026Z,1014.73
2023-02-07T03:53:10.024Z,1014.72
2023-02-07T03:54:09.996Z,1014.78
2023-02-07T03:55:09.959Z,1014.75
2023-02-07T03:56:09.957Z,1014.81
2023-02-07T03:57:09.937Z,1014.82
2023-02-07T03:58:09.962Z,1014.83
2023-02-07T03:59:09.912Z,1014.84
2023-02-07T04:00:09.908Z,1014.85
2023-02-07T04:01:09.928Z,1014.82
2023-02-07T04:02:09.932Z,1014.81
2023-02-07T04:03:09.912Z,1014.78
2023-02-07T04:04:09.864Z,1014.82
2023-02-07T04:05:09.848Z,1014.80
2023-02-07T04:06:09.828Z,1014.83
2023-02-07T04:07:09.819Z,1014.85
2023-02-07T04:08:09.864Z,1014.81
2023-02-07T04:09:11.731Z,1014.84
2023-02-07T04:10:09.792Z,1014.84
2023-02-07T04:11:09.773Z,1014.86
2023-02-07T04:12:09.756Z,1014.86
2023-02-07T04:13:09.751Z,1014.85
2023-02-07T04:14:09.746Z,1014.88
2023-02-07T04:15:09.753Z,1014.83
2023-02-07T04:16:09.746Z,1014.87
2023-02-07T04:17:09.693Z,1014.91
2023-02-07T04:18:09.709Z,1014.88
2023-02-07T04:19:09.676Z,1014.90
2023-02-07T04:20:09.694Z,1014.85
2023-02-07T04:21:09.656Z,1014.85
2023-02-07T04:22:09.688Z,1014.85
2023-02-07T04:23:09.672Z,1014.85
2023-02-07T04:24:09.608Z,1014.87
2023-02-07T04:25:09.593Z,1014.87
2023-02-07T04:26:09.580Z,1014.94
2023-02-07T04:27:09.562Z,1014.93
2023-02-07T04:28:09.631Z,1014.96
2023-02-07T04:29:09.534Z,1014.98
2023-02-07T04:30:09.534Z,1015.00
2023-02-07T04:31:09.522Z,1015.08
2023-02-07T04:32:09.507Z,1015.02
2023-02-07T04:33:09.522Z,1015.03
2023-02-07T04:34:09.488Z,1014.99
2023-02-07T04:35:09.467Z,1015.03
2023-02-07T04:36:09.457Z,1015.02
2023-02-07T04:37:09.438Z,1015.01
2023-02-07T04:38:09.455Z,1014.99
2023-02-07T04:39:09.415Z,1014.98
2023-02-07T04:40:09.429Z,1015.03
2023-02-07T04:41:09.396Z,1015.01
2023-02-07T04:42:09.391Z,1015.01
2023-02-07T04:43:09.390Z,1014.98
2023-02-07T04:44:09.342Z,1015.00
2023-02-07T04:45:09.326Z,1014.97
2023-02-07T04:46:09.399Z,1014.99
2023-02-07T04:47:09.376Z,1015.09
2023-02-07T04:48:09.323Z,1015.06
2023-02-07T04:49:09.284Z,1015.04
2023-02-07T04:50:09.281Z,1015.07
2023-02-07T04:51:09.266Z,1015.07
2023-02-07T04:52:09.252Z,1015.07
2023-02-07T04:53:09.278Z,1015.11
2023-02-07T04:54:09.240Z,1015.06
2023-02-07T04:55:09.220Z,1015.11
2023-02-07T04:56:09.200Z,1015.07
2023-02-07T04:57:09.180Z,1015.03
2023-02-07T04:58:09.240Z,1015.04
2023-02-07T04:59:09.181Z,1015.05
2023-02-07T05:00:09.150Z,1015.03
2023-02-07T05:01:09.170Z,1015.04
2023-02-07T05:02:09.132Z,1014.98
2023-02-07T05:03:09.149Z,1015.07
2023-02-07T05:04:09.160Z,1015.10
2023-02-07T05:05:09.098Z,1015.14
2023-02-07T05:06:09.090Z,1015.15
2023-02-07T05:07:09.065Z,1015.17
2023-02-07T05:08:09.095Z,1015.17
2023-02-07T05:09:09.040Z,1015.14
2023-02-07T05:10:09.022Z,1015.19
2023-02-07T05:11:09.016Z,1015.19
2023-02-07T05:12:09.005Z,1015.21
2023-02-07T05:13:09.044Z,1015.23
2023-02-07T05:14:08.981Z,1015.25
2023-02-07T05:15:08.973Z,1015.21
2023-02-07T05:16:09.021Z,1015.26
2023-02-07T05:17:08.945Z,1015.25
2023-02-07T05:18:09.011Z,1015.27
2023-02-07T05:19:08.921Z,1015.27
2023-02-07T05:20:08.921Z,1015.22
2023-02-07T05:21:08.895Z,1015.25
2023-02-07T05:22:08.911Z,1015.23
2023-02-07T05:23:08.944Z,1015.23
2023-02-07T05:24:08.859Z,1015.24
2023-02-07T05:25:08.860Z,1015.22
2023-02-07T05:26:08.845Z,1015.27
2023-02-07T05:27:08.829Z,1015.32
2023-02-07T05:28:08.832Z,1015.34
2023-02-07T05:29:08.791Z,1015.39
2023-02-07T05:30:08.789Z,1015.42
2023-02-07T05:31:08.832Z,1015.47
2023-02-07T05:32:08.834Z,1015.41
2023-02-07T05:33:08.775Z,1015.46
2023-02-07T05:34:08.738Z,1015.44
2023-02-07T05:35:08.720Z,1015.42
2023-02-07T05:36:09.509Z,1015.41
2023-02-07T05:37:08.685Z,1015.38
2023-02-07T05:38:08.733Z,1015.36
2023-02-07T05:39:08.666Z,1015.38
2023-02-07T05:40:08.673Z,1015.38
2023-02-07T05:41:08.695Z,1015.39
2023-02-07T05:42:08.676Z,1015.43
2023-02-07T05:43:08.622Z,1015.42
2023-02-07T05:44:08.665Z,1015.40
2023-02-07T05:45:08.611Z,1015.37
2023-02-07T05:46:08.619Z,1015.36
2023-02-07T05:47:08.765Z,1015.41
2023-02-07T05:48:08.583Z,1015.34
2023-02-07T05:49:08.633Z,1015.36
2023-02-07T05:50:08.554Z,1015.37
2023-02-07T05:51:08.519Z,1015.38
2023-02-07T05:52:08.531Z,1015.39
2023-02-07T05:53:08.612Z,1015.41
2023-02-07T05:54:08.521Z,1015.42
2023-02-07T05:55:08.526Z,1015.45
2023-02-07T05:56:08.456Z,1015.44
2023-02-07T05:57:08.443Z,1015.48
2023-02-07T05:58:08.437Z,1015.45
2023-02-07T05:59:08.866Z,1015.46
2023-02-07T06:00:08.527Z,1015.42
2023-02-07T06:01:08.408Z,1015.42
2023-02-07T06:02:08.553Z,1015.45
2023-02-07T06:03:08.416Z,1015.43
2023-02-07T06:04:08.394Z,1015.47
2023-02-07T06:05:08.344Z,1015.41
2023-02-07T06:06:08.338Z,1015.43
2023-02-07T06:07:08.314Z,1015.42
2023-02-07T06:08:08.303Z,1015.42
2023-02-07T06:09:08.342Z,1015.45
2023-02-07T06:10:08.317Z,1015.42
2023-02-07T06:11:08.275Z,1015.43
2023-02-07T06:12:08.262Z,1015.44
2023-02-07T06:13:08.252Z,1015.45
2023-02-07T06:14:08.276Z,1015.52
2023-02-07T06:15:08.212Z,1015.52
2023-02-07T06:16:08.213Z,1015.52
2023-02-07T06:17:08.202Z,1015.50
2023-02-07T06:18:09.122Z,1015.45
2023-02-07T06:19:08.164Z,1015.45
2023-02-07T06:20:08.118Z,1015.41
2023-02-07T06:21:08.158Z,1015.42
2023-02-07T06:22:08.150Z,1015.39
2023-02-07T06:23:08.146Z,1015.37
2023-02-07T06:24:08.156Z,1015.32
2023-02-07T06:25:12.649Z,1015.33
2023-02-07T06:26:08.092Z,1015.35
2023-02-07T06:27:08.078Z,1015.33
2023-02-07T06:28:08.770Z,1015.31
2023-02-07T06:29:08.053Z,1015.34
2023-02-07T06:30:07.992Z,1015.35
2023-02-07T06:31:08.148Z,1015.38
2023-02-07T06:32:07.960Z,1015.42
2023-02-07T06:33:07.962Z,1015.43
2023-02-07T06:34:07.993Z,1015.45
2023-02-07T06:35:07.926Z,1015.42
2023-02-07T06:36:07.917Z,1015.41
2023-02-07T06:37:07.916Z,1015.42
2023-02-07T06:38:07.887Z,1015.46
2023-02-07T06:39:07.905Z,1015.46
2023-02-07T06:40:07.935Z,1015.45
2023-02-07T06:41:07.901Z,1015.49
2023-02-07T06:42:07.872Z,1015.46
2023-02-07T06:43:09.039Z,1015.45
2023-02-07T06:44:07.956Z,1015.44
2023-02-07T06:45:08.429Z,1015.45
2023-02-07T06:46:07.871Z,1015.44
2023-02-07T06:47:07.845Z,1015.45
2023-02-07T06:48:07.779Z,1015.47
2023-02-07T06:49:07.856Z,1015.46
2023-02-07T06:50:09.246Z,1015.50
2023-02-07T06:51:07.732Z,1015.50
2023-02-07T06:52:07.723Z,1015.49
2023-02-07T06:53:07.719Z,1015.52
2023-02-07T06:54:07.841Z,1015.52
2023-02-07T06:55:07.863Z,1015.56
2023-02-07T06:56:07.663Z,1015.60
2023-02-07T06:57:07.673Z,1015.59
2023-02-07T06:58:07.723Z,1015.60
2023-02-07T06:59:07.717Z,1015.58
2023-02-07T07:00:07.624Z,1015.60
2023-02-07T07:01:07.638Z,1015.58
2023-02-07T07:02:07.616Z,1015.62
2023-02-07T07:03:07.594Z,1015.62
2023-02-07T07:04:07.688Z,1015.61
2023-02-07T07:05:07.662Z,1015.67
2023-02-07T07:06:07.645Z,1015.61
2023-02-07T07:07:07.551Z,1015.57
2023-02-07T07:08:07.576Z,1015.57
2023-02-07T07:09:07.692Z,1015.61
2023-02-07T07:10:07.550Z,1015.59
2023-02-07T07:11:07.667Z,1015.58
2023-02-07T07:12:07.471Z,1015.60
2023-02-07T07:13:07.649Z,1015.63
2023-02-07T07:14:07.572Z,1015.63
2023-02-07T07:15:07.442Z,1015.64
2023-02-07T07:16:07.467Z,1015.62
2023-02-07T07:17:07.516Z,1015.64
2023-02-07T07:18:07.404Z,1015.65
2023-02-07T07:19:07.442Z,1015.65
2023-02-07T07:20:07.494Z,1015.68
2023-02-07T07:21:07.385Z,1015.71
2023-02-07T07:22:07.366Z,1015.72
2023-02-07T07:23:07.342Z,1015.74
2023-02-07T07:24:07.418Z,1015.83
2023-02-07T07:25:07.331Z,1015.81
2023-02-07T07:26:07.304Z,1015.85
2023-02-07T07:27:07.302Z,1015.90
2023-02-07T07:28:07.359Z,1015.84
2023-02-07T07:29:07.306Z,1015.89
2023-02-07T07:30:08.554Z,1015.91
2023-02-07T07:31:07.343Z,1015.93
2023-02-07T07:32:07.231Z,1015.97
2023-02-07T07:33:07.222Z,1015.99
2023-02-07T07:34:07.234Z,1016.00
2023-02-07T07:35:07.199Z,1015.99
2023-02-07T07:36:08.793Z,1016.03
2023-02-07T07:37:07.180Z,1016.02
2023-02-07T07:38:07.218Z,1016.02
2023-02-07T07:39:07.457Z,1016.04
2023-02-07T07:40:07.160Z,1016.09
2023-02-07T07:41:07.134Z,1016.06
2023-02-07T07:42:07.105Z,1016.14
2023-02-07T07:43:07.096Z,1016.15
2023-02-07T07:44:07.144Z,1016.21
2023-02-07T07:45:07.091Z,1016.28
2023-02-07T07:46:07.064Z,1016.23
2023-02-07T07:47:07.055Z,1016.25
2023-02-07T07:48:07.044Z,1016.27
2023-02-07T07:49:07.050Z,1016.27
2023-02-07T07:50:07.015Z,1016.26
2023-02-07T07:51:06.999Z,1016.26
2023-02-07T07:52:06.970Z,1016.25
2023-02-07T07:53:06.974Z,1016.20
2023-02-07T07:54:06.987Z,1016.22
2023-02-07T07:55:06.948Z,1016.23
2023-02-07T07:56:06.952Z,1016.20
2023-02-07T07:57:06.956Z,1016.24
2023-02-07T07:58:06.906Z,1016.26
2023-02-07T07:59:12.150Z,1016.24
2023-02-07T08:00:07.882Z,1016.28
2023-02-07T08:01:06.957Z,1016.28
2023-02-07T08:02:06.865Z,1016.28
2023-02-07T08:03:06.845Z,1016.30
2023-02-07T08:04:06.903Z,1016.25
2023-02-07T08:05:06.837Z,1016.19
2023-02-07T08:06:06.794Z,1016.21
2023-02-07T08:07:06.795Z,1016.21
2023-02-07T08:08:06.789Z,1016.17
2023-02-07T08:09:06.794Z,1016.15
2023-02-07T08:10:06.841Z,1016.15
2023-02-07T08:11:06.743Z,1016.08
2023-02-07T08:12:06.733Z,1016.12
2023-02-07T08:13:06.724Z,1016.11
2023-02-07T08:14:06.893Z,1016.10
2023-02-07T08:15:06.708Z,1016.12
2023-02-07T08:16:06.710Z,1016.12
2023-02-07T08:17:06.700Z,1016.08
2023-02-07T08:18:06.676Z,1016.07
2023-02-07T08:19:06.653Z,1016.07
2023-02-07T08:20:06.667Z,1016.00
2023-02-07T08:21:06.644Z,1016.02
2023-02-07T08:22:06.615Z,1016.01
2023-02-07T08:23:06.634Z,1016.08
2023-02-07T08:24:06.581Z,1016.11
2023-02-07T08:25:06.636Z,1016.16
2023-02-07T08:26:06.571Z,1016.18
2023-02-07T08:27:06.551Z,1016.18
2023-02-07T08:28:06.606Z,1016.20
2023-02-07T08:29:06.530Z,1016.17
2023-02-07T08:30:06.550Z,1016.19
2023-02-07T08:31:06.631Z,1016.15
2023-02-07T08:32:06.533Z,1016.18
2023-02-07T08:33:06.473Z,1016.17
2023-02-07T08:34:06.460Z,1016.17
2023-02-07T08:35:06.491Z,1016.25
2023-02-07T08:36:06.440Z,1016.23
2023-02-07T08:37:06.466Z,1016.26
2023-02-07T08:38:06.416Z,1016.26
2023-02-07T08:39:06.876Z,1016.27
2023-02-07T08:40:06.528Z,1016.25
2023-02-07T08:41:06.392Z,1016.22
2023-02-07T08:42:06.453Z,1016.22
2023-02-07T08:43:06.439Z,1016.22
2023-02-07T08:44:06.334Z,1016.21
2023-02-07T08:45:06.478Z,1016.21
2023-02-07T08:46:06.508Z,1016.23
2023-02-07T08:47:06.325Z,1016.21
2023-02-07T08:48:06.360Z,1016.21
2023-02-07T08:49:06.344Z,1016.20
2023-02-07T08:50:06.327Z,1016.21
2023-02-07T08:51:06.257Z,1016.18
2023-02-07T08:52:06.237Z,1016.10
2023-02-07T08:53:06.250Z,1016.17
2023-02-07T08:54:06.283Z,1016.17
2023-02-07T08:55:06.243Z,1016.18
2023-02-07T08:56:06.194Z,1016.15
2023-02-07T08:57:06.184Z,1016.18
2023-02-07T08:58:06.237Z,1016.20
2023-02-07T08:59:06.174Z,1016.21
2023-02-07T09:00:06.214Z,1016.20
2023-02-07T09:01:06.150Z,1016.21
2023-02-07T09:02:06.148Z,1016.17
2023-02-07T09:03:06.123Z,1016.13
2023-02-07T09:04:06.082Z,1016.11
2023-02-07T09:05:06.127Z,1016.11
2023-02-07T09:06:06.192Z,1016.08
2023-02-07T09:07:06.165Z,1016.09
2023-02-07T09:08:06.024Z,1016.08
2023-02-07T09:09:06.080Z,1016.05
2023-02-07T09:10:06.286Z,1016.04
2023-02-07T09:11:10.337Z,1016.07
2023-02-07T09:12:06.028Z,1016.05
2023-02-07T09:13:05.982Z,1016.06
2023-02-07T09:14:05.994Z,1016.03
2023-02-07T09:15:06.004Z,1016.04
2023-02-07T09:16:05.932Z,1016.03
2023-02-07T09:17:05.943Z,1016.00
2023-02-07T09:18:05.907Z,1015.99
2023-02-07T09:19:05.895Z,1016.01
2023-02-07T09:20:05.902Z,1016.01
2023-02-07T09:21:05.891Z,1016.02
2023-02-07T09:22:06.653Z,1015.97
2023-02-07T09:23:05.905Z,1015.94
2023-02-07T09:24:05.943Z,1015.97
2023-02-07T09:25:05.914Z,1015.91
2023-02-07T09:26:05.814Z,1015.92
2023-02-07T09:27:05.852Z,1015.93
2023-02-07T09:28:05.886Z,1015.93
2023-02-07T09:29:05.903Z,1015.89
2023-02-07T09:30:05.788Z,1015.89
2023-02-07T09:31:05.995Z,1015.87
2023-02-07T09:32:05.822Z,1015.86
2023-02-07T09:33:05.765Z,1015.80
2023-02-07T09:34:05.749Z,1015.83
2023-02-07T09:35:05.719Z,1015.81
2023-02-07T09:36:05.692Z,1015.85
2023-02-07T09:37:05.701Z,1015.84
2023-02-07T09:38:05.651Z,1015.79
2023-02-07T09:39:05.651Z,1015.83
2023-02-07T09:40:05.654Z,1015.79
2023-02-07T09:41:05.621Z,1015.79
2023-02-07T09:42:05.697Z,1015.83
2023-02-07T09:43:05.807Z,1015.83
2023-02-07T09:44:05.650Z,1015.84
2023-02-07T09:45:05.760Z,1015.86
2023-02-07T09:46:05.586Z,1015.87
2023-02-07T09:47:05.588Z,1015.89
2023-02-07T09:48:05.526Z,1015.89
2023-02-07T09:49:05.517Z,1015.91
2023-02-07T09:50:05.539Z,1015.86
2023-02-07T09:51:05.540Z,1015.93
2023-02-07T09:52:05.470Z,1015.86
2023-02-07T09:53:05.451Z,1015.91
2023-02-07T09:54:05.445Z,1015.98
2023-02-07T09:55:05.565Z,1015.93
2023-02-07T09:56:05.410Z,1015.91
2023-02-07T09:57:05.418Z,1015.92
2023-02-07T09:58:05.399Z,1015.94
2023-02-07T09:59:05.392Z,1015.91
2023-02-07T10:00:05.400Z,1015.87
2023-02-07T10:01:05.394Z,1015.87
2023-02-07T10:02:05.350Z,1015.84
2023-02-07T10:03:05.352Z,1015.84
2023-02-07T10:04:06.686Z,1015.86
2023-02-07T10:05:05.346Z,1015.81
2023-02-07T10:06:17.472Z,1015.79
2023-02-07T10:07:06.283Z,1015.82
2023-02-07T10:08:05.378Z,1015.78
2023-02-07T10:09:05.253Z,1015.82
2023-02-07T10:10:05.266Z,1015.78
2023-02-07T10:11:05.908Z,1015.81
2023-02-07T10:12:05.207Z,1015.77
2023-02-07T10:13:05.203Z,1015.82
2023-02-07T10:14:05.191Z,1015.80
2023-02-07T10:15:05.223Z,1015.85
2023-02-07T10:16:05.332Z,1015.90
2023-02-07T10:17:05.260Z,1015.84
2023-02-07T10:18:05.138Z,1015.86
2023-02-07T10:19:05.142Z,1015.84
2023-02-07T10:20:05.136Z,1015.84
2023-02-07T10:21:05.098Z,1015.85
2023-02-07T10:22:05.091Z,1015.81
2023-02-07T10:23:05.111Z,1015.85
2023-02-07T10:24:05.047Z,1015.86
2023-02-07T10:25:05.090Z,1015.83
2023-02-07T10:26:05.081Z,1015.83
2023-02-07T10:27:05.051Z,1015.85
2023-02-07T10:28:05.020Z,1015.78
2023-02-07T10:29:05.002Z,1015.78
2023-02-07T10:30:05.033Z,1015.75
2023-02-07T10:31:05.057Z,1015.75
2023-02-07T10:32:05.037Z,1015.76
2023-02-07T10:33:04.948Z,1015.73
2023-02-07T10:34:04.929Z,1015.69
2023-02-07T10:35:04.947Z,1015.70
2023-02-07T10:36:04.896Z,1015.73
2023-02-07T10:37:04.897Z,1015.77
2023-02-07T10:38:04.905Z,1015.71
2023-02-07T10:39:09.375Z,1015.71
2023-02-07T10:40:05.886Z,1015.72
2023-02-07T10:41:04.838Z,1015.68
2023-02-07T10:42:04.847Z,1015.69
2023-02-07T10:43:04.858Z,1015.67
2023-02-07T10:44:04.833Z,1015.71
2023-02-07T10:45:04.819Z,1015.69
2023-02-07T10:46:06.572Z,1015.64
2023-02-07T10:47:04.789Z,1015.62
2023-02-07T10:48:04.744Z,1015.64
2023-02-07T10:49:04.736Z,1015.68
2023-02-07T10:50:04.754Z,1015.65
2023-02-07T10:51:04.718Z,1015.65
2023-02-07T10:52:04.694Z,1015.70
2023-02-07T10:53:04.719Z,1015.68
2023-02-07T10:54:04.684Z,1015.73
2023-02-07T10:55:04.669Z,1015.75
2023-02-07T10:56:04.674Z,1015.78
2023-02-07T10:57:04.644Z,1015.78
2023-02-07T10:58:17.640Z,1015.77
2023-02-07T10:59:05.613Z,1015.74
2023-02-07T11:00:04.594Z,1015.70
2023-02-07T11:01:04.613Z,1015.72
2023-02-07T11:02:04.563Z,1015.69
2023-02-07T11:03:04.621Z,1015.67
2023-02-07T11:04:04.548Z,1015.68
2023-02-07T11:05:04.523Z,1015.68
2023-02-07T11:06:04.553Z,1015.63
2023-02-07T11:07:04.517Z,1015.67
2023-02-07T11:08:04.516Z,1015.66
2023-02-07T11:09:04.486Z,1015.68
2023-02-07T11:10:04.465Z,1015.60
2023-02-07T11:11:04.485Z,1015.57
2023-02-07T11:12:04.453Z,1015.54
2023-02-07T11:13:04.431Z,1015.53
2023-02-07T11:14:04.439Z,1015.52
2023-02-07T11:15:04.393Z,1015.53
2023-02-07T11:16:04.483Z,1015.44
2023-02-07T11:17:04.380Z,1015.45
2023-02-07T11:18:04.381Z,1015.42
2023-02-07T11:19:04.351Z,1015.37
2023-02-07T11:20:04.465Z,1015.36
2023-02-07T11:21:04.566Z,1015.34
2023-02-07T11:22:04.915Z,1015.34
2023-02-07T11:23:04.302Z,1015.37
2023-02-07T11:24:04.298Z,1015.38
2023-02-07T11:25:04.279Z,1015.37
2023-02-07T11:26:04.298Z,1015.37
2023-02-07T11:27:04.251Z,1015.32
2023-02-07T11:28:04.258Z,1015.41
2023-02-07T11:29:06.848Z,1015.37
2023-02-07T11:30:04.221Z,1015.33
2023-02-07T11:31:04.319Z,1015.36
2023-02-07T11:32:04.172Z,1015.24
2023-02-07T11:33:04.177Z,1015.25
2023-02-07T11:34:04.161Z,1015.26
2023-02-07T11:35:04.130Z,1015.19
2023-02-07T11:36:04.164Z,1015.19
2023-02-07T11:37:04.121Z,1015.17
2023-02-07T11:38:04.826Z,1015.15
2023-02-07T11:39:04.095Z,1015.11
2023-02-07T11:40:04.077Z,1015.09
2023-02-07T11:41:04.077Z,1015.04
2023-02-07T11:42:04.067Z,1015.08
2023-02-07T11:43:04.030Z,1015.09
2023-02-07T11:44:04.021Z,1015.02
2023-02-07T11:45:04.006Z,1015.01
2023-02-07T11:46:04.025Z,1015.02
2023-02-07T11:47:03.982Z,1015.04
2023-02-07T11:48:03.978Z,1014.98
2023-02-07T11:49:03.950Z,1014.99
2023-02-07T11:50:03.939Z,1014.94
2023-02-07T11:51:03.971Z,1015.05
2023-02-07T11:52:03.929Z,1014.94
2023-02-07T11:53:03.899Z,1015.02
2023-02-07T11:54:03.901Z,1014.99
2023-02-07T11:55:03.890Z,1014.96
2023-02-07T11:56:03.889Z,1014.98
2023-02-07T11:57:03.852Z,1014.98
2023-02-07T11:58:03.877Z,1014.93
2023-02-07T11:59:03.817Z,1014.96
2023-02-07T12:00:03.829Z,1014.95
2023-02-07T12:01:03.841Z,1014.94
2023-02-07T12:02:03.852Z,1014.90
2023-02-07T12:03:03.781Z,1014.96
2023-02-07T12:04:03.770Z,1014.96
2023-02-07T12:05:03.768Z,1014.89